createdAt,value
2022-12-27T00:00:28.941Z,98101.34
2022-12-27T00:03:35.268Z,98090.09
2022-12-27T00:06:41.561Z,98091.03
2022-12-27T00:09:47.833Z,98085.03
2022-12-27T00:12:53.437Z,98088.59
2022-12-27T00:16:07.407Z,98084.38
2022-12-27T00:19:12.824Z,98077.47
2022-12-27T00:22:19.202Z,98070.63
2022-12-27T00:25:25.198Z,98062.09
2022-12-27T00:28:34.406Z,98051.72
2022-12-27T00:31:44.334Z,98044.97
2022-12-27T00:34:50.616Z,98046.84
2022-12-27T00:37:55.946Z,98049.28
2022-12-27T00:41:03.468Z,98038.81
2022-12-27T00:44:09.069Z,98051.16
2022-12-27T00:47:18.129Z,98046.28
2022-12-27T00:50:23.509Z,98051.88
2022-12-27T00:53:30.594Z,98049.25
2022-12-27T00:56:35.987Z,98056.75
2022-12-27T00:59:42.192Z,98057.44
2022-12-27T01:02:51.231Z,98058.47
2022-12-27T01:05:57.655Z,98059.94
2022-12-27T01:09:05.732Z,98053.78
2022-12-27T01:12:11.997Z,98064.91
2022-12-27T01:15:17.547Z,98075.22
2022-12-27T01:18:27.164Z,98064.81
2022-12-27T01:21:33.306Z,98072.97
2022-12-27T01:24:39.566Z,98073.78
2022-12-27T01:27:44.876Z,98070.44
2022-12-27T01:30:51.321Z,98084.66
2022-12-27T01:34:03.349Z,98083.31
2022-12-27T01:37:09.589Z,98143.63
2022-12-27T01:40:15.496Z,98145.72
2022-12-27T01:43:19.859Z,98151.66
2022-12-27T01:46:26.136Z,98146.53
2022-12-27T01:49:35.577Z,98156.31
2022-12-27T01:52:48.740Z,98164.75
2022-12-27T01:56:01.253Z,98161.53
2022-12-27T01:59:12.314Z,98171.09
2022-12-27T02:02:19.125Z,98162.88
2022-12-27T02:05:30.019Z,98155.28
2022-12-27T02:08:52.009Z,98166.50
2022-12-27T02:12:02.240Z,98169.88
2022-12-27T02:15:09.512Z,98174.00
2022-12-27T02:18:15.237Z,98164.31
2022-12-27T02:22:31.713Z,98180.59
2022-12-27T02:26:09.788Z,98197.41
2022-12-27T02:29:40.715Z,98184.47
2022-12-27T02:32:58.916Z,98184.72
2022-12-27T02:36:13.149Z,98188.19
2022-12-27T02:39:25.579Z,98193.25
2022-12-27T02:42:59.692Z,98198.31
2022-12-27T02:46:35.895Z,98184.47
2022-12-27T02:50:00.978Z,98162.28
2022-12-27T02:53:25.805Z,98191.53
2022-12-27T02:57:05.575Z,98206.69
2022-12-27T03:00:34.180Z,98205.84
2022-12-27T03:04:05.149Z,98207.53
2022-12-27T03:07:30.916Z,98219.28
2022-12-27T03:11:05.600Z,98224.53
2022-12-27T03:14:38.558Z,98234.38
2022-12-27T03:17:56.506Z,98250.06
2022-12-27T03:21:26.647Z,98259.19
2022-12-27T03:24:53.939Z,98253.13
2022-12-27T03:28:25.708Z,98267.41
2022-12-27T03:32:05.426Z,98288.34
2022-12-27T03:35:21.524Z,98275.91
2022-12-27T03:38:34.536Z,98311.25
2022-12-27T03:42:06.599Z,98296.03
2022-12-27T03:45:13.938Z,98300.63
2022-12-27T03:48:26.729Z,98313.97
2022-12-27T03:51:41.500Z,98314.81
2022-12-27T03:54:54.992Z,98333.91
2022-12-27T03:58:01.177Z,98339.81
2022-12-27T04:01:08.701Z,98343.22
2022-12-27T04:04:14.361Z,98348.13
2022-12-27T04:07:20.843Z,98343.19
2022-12-27T04:10:45.446Z,98357.91
2022-12-27T04:14:07.576Z,98366.88
2022-12-27T04:17:28.980Z,98350.09
2022-12-27T04:20:51.632Z,98396.97
2022-12-27T04:24:12.736Z,98368.53
2022-12-27T04:27:37.342Z,98430.56
2022-12-27T04:30:58.570Z,98375.97
2022-12-27T04:34:20.508Z,98406.31
2022-12-27T04:37:25.902Z,98395.25
2022-12-27T04:40:47.689Z,98385.56
2022-12-27T04:44:11.711Z,98405.88
2022-12-27T04:47:39.925Z,98411.31
2022-12-27T04:51:01.073Z,98414.31
2022-12-27T04:54:28.693Z,98435.59
2022-12-27T04:57:34.073Z,98418.59
2022-12-27T05:00:59.302Z,98413.53
2022-12-27T05:04:05.222Z,98435.34
2022-12-27T05:07:33.320Z,98452.88
2022-12-27T05:10:54.951Z,98461.56
2022-12-27T05:14:04.082Z,98482.56
2022-12-27T05:17:12.298Z,98484.03
2022-12-27T05:20:18.698Z,98481.22
2022-12-27T05:23:40.268Z,98475.66
2022-12-27T05:26:46.514Z,98501.91
2022-12-27T05:29:52.124Z,98514.09
2022-12-27T05:33:01.153Z,98518.63
2022-12-27T05:36:06.752Z,98549.13
2022-12-27T05:39:12.968Z,98548.06
2022-12-27T05:42:18.320Z,98540.13
2022-12-27T05:45:24.719Z,98547.00
2022-12-27T05:48:33.096Z,98561.19
2022-12-27T05:51:39.517Z,98562.28
2022-12-27T05:54:44.885Z,98582.94
2022-12-27T05:57:51.415Z,98590.22
2022-12-27T06:00:57.189Z,98583.31
2022-12-27T06:04:06.465Z,98586.63
2022-12-27T06:07:14.569Z,98602.63
2022-12-27T06:10:21.191Z,98596.75
2022-12-27T06:13:26.936Z,98620.06
2022-12-27T06:16:33.244Z,98630.66
2022-12-27T06:19:41.597Z,98621.09
2022-12-27T06:22:48.579Z,98639.28
2022-12-27T06:25:54.008Z,98662.25
2022-12-27T06:29:01.916Z,98651.22
2022-12-27T06:32:07.885Z,98657.47
2022-12-27T06:35:17.187Z,98663.69
2022-12-27T06:38:22.549Z,98675.66
2022-12-27T06:41:29.879Z,98687.19
2022-12-27T06:44:35.499Z,98692.53
2022-12-27T06:47:41.786Z,98696.81
2022-12-27T06:50:50.190Z,98710.84
2022-12-27T06:53:56.865Z,98698.69
2022-12-27T06:57:02.319Z,98721.56
2022-12-27T07:00:10.432Z,98719.31
2022-12-27T07:03:16.191Z,98734.72
2022-12-27T07:06:27.787Z,98747.66
2022-12-27T07:09:33.199Z,98757.97
2022-12-27T07:12:40.380Z,98783.31
2022-12-27T07:15:46.048Z,98759.69
2022-12-27T07:18:53.087Z,98764.78
2022-12-27T07:22:01.602Z,98775.19
2022-12-27T07:25:09.526Z,98768.31
2022-12-27T07:28:15.187Z,98769.81
2022-12-27T07:31:26.712Z,98786.00
2022-12-27T07:34:32.498Z,98797.44
2022-12-27T07:37:41.499Z,98798.75
2022-12-27T07:40:46.879Z,98808.41
2022-12-27T07:43:53.220Z,98821.41
2022-12-27T07:46:58.584Z,98829.59
2022-12-27T07:50:05.410Z,98829.41
2022-12-27T07:53:13.533Z,98833.53
2022-12-27T07:56:26.441Z,98860.63
2022-12-27T07:59:32.260Z,98848.03
2022-12-27T08:02:42.359Z,98874.09
2022-12-27T08:05:53.249Z,98878.47
2022-12-27T08:09:08.841Z,98876.34
2022-12-27T08:12:16.428Z,98871.75
2022-12-27T08:15:23.370Z,98889.03
2022-12-27T08:18:29.118Z,98885.00
2022-12-27T08:21:35.423Z,98908.72
2022-12-27T08:24:44.174Z,98912.06
2022-12-27T08:27:50.702Z,98909.53
2022-12-27T08:30:56.496Z,98912.63
2022-12-27T08:34:03.479Z,98914.47
2022-12-27T08:37:09.071Z,98925.19
2022-12-27T08:40:18.378Z,98924.72
2022-12-27T08:43:24.194Z,98927.94
2022-12-27T08:46:30.760Z,98730.69
2022-12-27T08:49:36.491Z,98940.06
2022-12-27T08:52:42.773Z,98939.84
2022-12-27T08:55:50.992Z,98943.41
2022-12-27T08:58:57.375Z,98953.22
2022-12-27T09:02:03.738Z,98958.28
2022-12-27T09:05:10.964Z,98953.88
2022-12-27T09:08:16.510Z,98961.91
2022-12-27T09:11:29.616Z,98965.28
2022-12-27T09:14:35.173Z,98964.28
2022-12-27T09:17:41.555Z,98962.69
2022-12-27T09:20:47.085Z,98960.22
2022-12-27T09:23:54.850Z,98958.91
2022-12-27T09:27:06.546Z,98960.88
2022-12-27T09:30:16.364Z,98949.34
2022-12-27T09:33:22.134Z,98941.56
2022-12-27T09:36:31.663Z,98950.09
2022-12-27T09:39:37.346Z,98948.28
2022-12-27T09:43:10.695Z,98937.25
2022-12-27T09:46:30.806Z,98955.66
2022-12-27T09:49:44.826Z,98959.31
2022-12-27T09:53:05.535Z,98937.66
2022-12-27T09:56:23.556Z,98934.72
2022-12-27T09:59:42.593Z,98947.06
2022-12-27T10:02:51.966Z,98948.06
2022-12-27T10:06:13.245Z,98956.59
2022-12-27T10:09:47.976Z,98968.09
2022-12-27T10:13:18.341Z,98954.78
2022-12-27T10:16:41.494Z,98947.56
2022-12-27T10:20:04.629Z,98950.19
2022-12-27T10:23:19.886Z,98960.56
2022-12-27T10:26:26.429Z,98981.66
2022-12-27T10:29:36.848Z,98962.09
2022-12-27T10:32:45.580Z,98934.84
2022-12-27T10:35:52.854Z,98943.53
2022-12-27T10:38:59.136Z,98950.19
2022-12-27T10:42:25.146Z,98959.03
2022-12-27T10:45:39.727Z,98957.25
2022-12-27T10:52:28.053Z,98943.13
2022-12-27T10:55:40.391Z,98965.22
2022-12-27T10:58:56.622Z,98972.41
2022-12-27T11:02:21.958Z,98958.50
2022-12-27T11:05:33.314Z,98979.69
2022-12-27T11:08:40.370Z,98961.31
2022-12-27T11:11:45.708Z,98958.41
2022-12-27T11:15:02.606Z,98875.13
2022-12-27T11:18:20.629Z,98947.16
2022-12-27T11:21:32.695Z,98951.81
2022-12-27T11:24:39.507Z,98954.28
2022-12-27T11:27:52.494Z,98952.31
2022-12-27T11:31:04.035Z,98962.44
2022-12-27T11:34:21.899Z,98965.53
2022-12-27T11:37:31.060Z,98973.34
2022-12-27T11:40:38.303Z,98952.69
2022-12-27T11:43:54.160Z,98975.66
2022-12-27T11:47:10.274Z,98963.44
2022-12-27T11:50:45.857Z,98950.88
2022-12-27T11:54:38.545Z,98957.22
2022-12-27T11:58:32.684Z,98962.44
2022-12-27T12:02:20.222Z,98986.88
2022-12-27T12:06:06.652Z,98969.28
2022-12-27T12:09:53.869Z,98971.06
2022-12-27T12:13:30.644Z,98960.84
2022-12-27T12:17:34.001Z,98965.81
2022-12-27T12:21:22.905Z,98954.09
2022-12-27T12:25:34.370Z,98957.47
2022-12-27T12:29:25.846Z,98963.47
2022-12-27T12:32:59.753Z,98969.09
2022-12-27T12:36:46.553Z,98973.72
2022-12-27T12:40:35.575Z,98972.59
2022-12-27T12:44:41.550Z,98963.16
2022-12-27T12:48:30.684Z,98968.38
2022-12-27T12:52:30.985Z,98978.69
2022-12-27T12:56:01.592Z,98964.97
2022-12-27T12:59:39.271Z,98972.50
2022-12-27T13:03:46.121Z,98969.31
2022-12-27T13:07:30.377Z,98973.03
2022-12-27T13:11:15.700Z,98971.47
2022-12-27T13:15:24.205Z,98989.78
2022-12-27T13:18:51.222Z,98965.97
2022-12-27T13:22:13.888Z,98974.31
2022-12-27T13:25:40.610Z,98971.88
2022-12-27T13:29:21.213Z,98987.34
2022-12-27T13:32:49.642Z,98971.75
2022-12-27T13:36:28.766Z,98991.94
2022-12-27T13:39:57.086Z,99002.13
2022-12-27T13:43:39.885Z,99005.44
2022-12-27T13:47:46.022Z,98998.72
2022-12-27T13:51:20.501Z,99019.56
2022-12-27T13:55:21.432Z,99006.88
2022-12-27T13:59:17.803Z,99006.47
2022-12-27T14:03:10.516Z,99007.66
2022-12-27T14:06:40.231Z,99014.34
2022-12-27T14:10:21.009Z,99015.50
2022-12-27T14:13:36.551Z,99011.81
2022-12-27T14:17:14.122Z,99015.09
2022-12-27T14:20:46.261Z,99016.00
2022-12-27T14:24:20.661Z,99027.22
2022-12-27T14:28:25.752Z,99022.38
2022-12-27T14:32:32.713Z,99010.59
2022-12-27T14:36:40.733Z,99017.13
2022-12-27T14:40:34.806Z,99055.28
2022-12-27T14:44:43.083Z,99050.78
2022-12-27T14:48:32.543Z,99040.75
2022-12-27T14:52:20.573Z,99034.53
2022-12-27T14:55:43.358Z,99051.78
2022-12-27T14:59:26.591Z,99053.34
2022-12-27T15:03:09.084Z,99046.91
2022-12-27T15:06:41.458Z,99047.38
2022-12-27T15:10:07.882Z,99057.06
2022-12-27T15:13:24.153Z,99063.09
2022-12-27T15:16:54.627Z,99078.53
2022-12-27T15:20:49.892Z,99092.09
2022-12-27T15:24:07.768Z,99089.63
2022-12-27T15:27:33.377Z,99081.22
2022-12-27T15:30:57.175Z,99077.72
2022-12-27T15:34:34.264Z,99071.50
2022-12-27T15:38:10.856Z,99077.88
2022-12-27T15:41:59.723Z,99069.53
2022-12-27T15:45:32.085Z,99075.47
2022-12-27T15:49:09.410Z,99076.97
2022-12-27T15:52:38.616Z,99077.81
2022-12-27T15:56:19.351Z,99081.75
2022-12-27T15:59:49.772Z,99089.88
2022-12-27T16:03:01.874Z,99018.25
2022-12-27T16:06:12.685Z,99085.88
2022-12-27T16:09:39.929Z,99090.81
2022-12-27T16:12:47.063Z,99081.22
2022-12-27T16:15:57.340Z,99100.25
2022-12-27T16:19:50.825Z,99092.94
2022-12-27T16:23:02.337Z,99098.09
2022-12-27T16:26:21.446Z,99096.28
2022-12-27T16:29:34.552Z,99098.41
2022-12-27T16:32:51.009Z,99095.72
2022-12-27T16:36:23.627Z,99099.84
2022-12-27T16:40:05.191Z,99106.50
2022-12-27T16:43:57.736Z,99090.97
2022-12-27T16:47:35.740Z,99110.75
2022-12-27T16:51:05.180Z,99111.66
2022-12-27T16:54:46.493Z,99108.41
2022-12-27T16:57:54.327Z,99111.72
2022-12-27T17:01:03.650Z,99107.41
2022-12-27T17:04:09.547Z,99115.19
2022-12-27T17:08:17.125Z,99110.84
2022-12-27T17:11:34.410Z,99113.63
2022-12-27T17:14:44.836Z,99116.44
2022-12-27T17:17:56.838Z,99119.97
2022-12-27T17:21:09.798Z,99123.44
2022-12-27T17:24:23.055Z,99113.50
2022-12-27T17:27:54.796Z,99123.78
2022-12-27T17:31:18.823Z,99127.34
2022-12-27T17:34:48.851Z,99125.00
2022-12-27T17:38:22.575Z,99134.66
2022-12-27T17:42:06.005Z,99093.72
2022-12-27T17:45:41.194Z,99133.13
2022-12-27T17:48:49.201Z,99132.34
2022-12-27T17:52:11.925Z,99128.94
2022-12-27T17:55:39.975Z,99137.81
2022-12-27T17:58:45.773Z,99147.22
2022-12-27T18:02:01.060Z,99154.22
2022-12-27T18:05:15.552Z,99151.81
2022-12-27T18:08:31.100Z,99147.59
2022-12-27T18:11:38.091Z,99147.59
2022-12-27T18:14:46.254Z,99154.47
2022-12-27T18:17:58.982Z,99146.75
2022-12-27T18:21:08.621Z,99158.81
2022-12-27T18:24:31.860Z,99156.31
2022-12-27T18:27:38.312Z,99160.63
2022-12-27T18:30:52.043Z,99158.94
2022-12-27T18:34:09.978Z,99167.53
2022-12-27T18:37:22.291Z,99164.88
2022-12-27T18:40:29.980Z,99171.63
2022-12-27T18:43:38.887Z,99178.75
2022-12-27T18:46:45.748Z,99187.44
2022-12-27T18:50:02.150Z,99186.84
2022-12-27T18:53:24.648Z,99172.25
2022-12-27T18:56:34.112Z,99168.66
2022-12-27T18:59:40.592Z,99188.41
2022-12-27T19:02:46.875Z,99178.88
2022-12-27T19:06:12.159Z,99141.78
2022-12-27T19:09:24.199Z,99170.88
2022-12-27T19:12:40.029Z,99177.47
2022-12-27T19:15:47.672Z,99169.00
2022-12-27T19:18:59.608Z,99166.66
2022-12-27T19:22:38.020Z,99180.00
2022-12-27T19:25:45.867Z,99178.16
2022-12-27T19:29:09.385Z,99184.91
2022-12-27T19:32:19.414Z,99188.44
2022-12-27T19:35:25.003Z,99188.44
2022-12-27T19:38:40.377Z,99193.75
2022-12-27T19:41:48.777Z,99196.34
2022-12-27T19:44:55.215Z,99186.91
2022-12-27T19:48:00.947Z,99196.44
2022-12-27T19:51:09.249Z,99190.41
2022-12-27T19:54:25.039Z,99189.47
2022-12-27T19:57:32.398Z,99192.06
2022-12-27T20:00:38.739Z,99190.63
2022-12-27T20:03:45.721Z,99187.38
2022-12-27T20:06:54.743Z,99206.72
2022-12-27T20:10:04.616Z,99215.22
2022-12-27T20:13:12.643Z,99213.50
2022-12-27T20:16:21.692Z,99207.53
2022-12-27T20:19:27.496Z,99221.41
2022-12-27T20:22:35.715Z,99224.09
2022-12-27T20:25:48.856Z,99218.97
2022-12-27T20:28:56.810Z,99218.03
2022-12-27T20:32:06.702Z,99216.34
2022-12-27T20:35:13.452Z,99220.78
2022-12-27T20:38:19.486Z,99219.91
2022-12-27T20:41:29.396Z,99222.38
2022-12-27T20:44:34.967Z,99225.94
2022-12-27T20:47:41.739Z,99228.47
2022-12-27T20:50:47.424Z,99229.25
2022-12-27T20:53:58.709Z,99233.47
2022-12-27T20:57:07.147Z,99234.22
2022-12-27T21:00:17.415Z,99167.47
2022-12-27T21:03:23.315Z,99235.09
2022-12-27T21:06:32.500Z,99248.75
2022-12-27T21:09:38.217Z,99238.38
2022-12-27T21:12:47.472Z,99252.88
2022-12-27T21:15:53.069Z,99256.13
2022-12-27T21:19:03.704Z,99249.09
2022-12-27T21:22:09.532Z,99239.50
2022-12-27T21:25:15.965Z,99248.97
2022-12-27T21:28:24.760Z,99247.31
2022-12-27T21:31:32.755Z,99247.38
2022-12-27T21:34:39.373Z,99246.56
2022-12-27T21:37:45.782Z,99236.25
2022-12-27T21:41:00.158Z,99231.13
2022-12-27T21:44:10.249Z,99233.72
2022-12-27T21:47:16.173Z,99233.72
2022-12-27T21:50:22.601Z,99222.56
2022-12-27T21:53:28.199Z,99222.44
2022-12-27T21:56:34.905Z,99223.31
2022-12-27T21:59:43.361Z,99220.59
2022-12-27T22:02:50.233Z,99220.72
2022-12-27T22:05:56.179Z,99220.78
2022-12-27T22:09:05.407Z,99223.38
2022-12-27T22:12:10.975Z,99233.72
2022-12-27T22:15:20.777Z,99226.69
2022-12-27T22:18:26.571Z,99230.19
2022-12-27T22:21:36.815Z,99218.88
2022-12-27T22:24:42.205Z,99226.59
2022-12-27T22:27:48.452Z,99221.59
2022-12-27T22:30:59.899Z,99219.75
2022-12-27T22:34:07.869Z,99228.31
2022-12-27T22:37:13.570Z,99225.59
2022-12-27T22:40:30.826Z,99222.94
2022-12-27T22:43:51.189Z,99222.06
2022-12-27T22:50:26.744Z,99226.09
2022-12-27T22:53:33.010Z,99226.00
2022-12-27T22:56:42.229Z,99212.94
2022-12-27T22:59:48.633Z,99216.47
2022-12-27T23:02:56.832Z,99213.81
2022-12-27T23:06:04.124Z,99219.06
2022-12-27T23:09:11.179Z,99215.72
2022-12-27T23:12:17.428Z,99214.16
2022-12-27T23:15:23.097Z,99219.34
2022-12-27T23:18:33.467Z,99223.69
2022-12-27T23:21:39.528Z,99215.97
2022-12-27T23:24:45.740Z,99219.22
2022-12-27T23:27:52.747Z,99226.06
2022-12-27T23:30:59.563Z,99222.59
2022-12-27T23:34:07.704Z,99215.53
2022-12-27T23:37:13.943Z,99210.19
2022-12-27T23:40:19.554Z,99202.22
2022-12-27T23:43:51.552Z,99192.50
2022-12-27T23:46:52.647Z,99189.91
2022-12-27T23:50:01.704Z,99185.50
2022-12-27T23:53:07.157Z,99183.91
2022-12-27T23:56:19.575Z,99181.34
2022-12-27T23:59:25.233Z,99179.72
